createdAt,value
2022-09-02T00:01:00.662Z,1.37
2022-09-02T00:03:31.595Z,1.30
2022-09-02T00:05:59.239Z,1.30
2022-09-02T00:08:27.041Z,1.30
2022-09-02T00:10:54.856Z,1.50
2022-09-02T00:13:22.446Z,1.50
2022-09-02T00:15:50.609Z,1.35
2022-09-02T00:18:18.583Z,1.23
2022-09-02T00:20:48.972Z,1.30
2022-09-02T00:23:16.775Z,1.20
2022-09-02T00:25:45.326Z,1.40
2022-09-02T00:28:14.926Z,1.37
2022-09-02T00:30:43.604Z,1.30
2022-09-02T00:33:12.292Z,1.45
2022-09-02T00:35:40.124Z,1.27
2022-09-02T00:38:12.268Z,1.30
2022-09-02T00:40:45.134Z,1.20
2022-09-02T00:43:12.914Z,1.25
2022-09-02T00:45:40.767Z,1.10
2022-09-02T00:48:08.255Z,1.30
2022-09-02T00:50:39.352Z,1.30
2022-09-02T00:53:10.094Z,1.30
2022-09-02T00:55:45.173Z,1.30
2022-09-02T00:58:29.427Z,1.25
2022-09-02T01:01:01.508Z,1.20
2022-09-02T01:03:31.597Z,1.48
2022-09-02T01:05:59.860Z,1.20
2022-09-02T01:08:32.797Z,1.20
2022-09-02T01:11:01.729Z,1.30
2022-09-02T01:13:31.431Z,1.10
2022-09-02T01:16:18.395Z,1.27
2022-09-02T01:18:50.386Z,1.20
2022-09-02T01:21:18.731Z,1.37
2022-09-02T01:23:47.441Z,1.42
2022-09-02T01:26:15.579Z,1.20
2022-09-02T01:28:46.589Z,1.23
2022-09-02T01:31:14.219Z,1.20
2022-09-02T01:33:42.357Z,1.12
2022-09-02T01:36:13.566Z,1.00
2022-09-02T01:38:41.036Z,1.23
2022-09-02T01:41:09.072Z,1.10
2022-09-02T01:43:40.500Z,1.35
2022-09-02T01:46:09.054Z,1.27
2022-09-02T01:48:37.040Z,1.20
2022-09-02T01:51:05.096Z,1.10
2022-09-02T01:53:33.725Z,1.10
2022-09-02T01:56:01.353Z,1.30
2022-09-02T01:58:29.158Z,1.17
2022-09-02T02:00:57.272Z,1.10
2022-09-02T02:03:25.410Z,1.00
2022-09-02T02:05:53.737Z,1.20
2022-09-02T02:08:22.085Z,1.15
2022-09-02T02:10:50.212Z,1.10
2022-09-02T02:13:17.908Z,1.27
2022-09-02T02:15:45.657Z,1.10
2022-09-02T02:18:18.912Z,1.20
2022-09-02T02:20:46.400Z,1.30
2022-09-02T02:23:14.444Z,1.17
2022-09-02T02:25:47.253Z,1.30
2022-09-02T02:28:15.031Z,1.20
2022-09-02T02:30:43.112Z,1.10
2022-09-02T02:33:10.988Z,1.10
2022-09-02T02:35:38.737Z,1.10
2022-09-02T02:38:06.262Z,1.20
2022-09-02T02:40:33.822Z,1.37
2022-09-02T02:43:01.641Z,1.10
2022-09-02T02:45:32.530Z,1.15
2022-09-02T02:48:00.111Z,1.10
2022-09-02T02:50:27.892Z,1.20
2022-09-02T02:52:56.494Z,1.20
2022-09-02T02:55:25.062Z,1.20
2022-09-02T02:57:53.429Z,1.50
2022-09-02T03:00:25.233Z,1.20
2022-09-02T03:02:57.782Z,1.10
2022-09-02T03:05:31.531Z,1.02
2022-09-02T03:08:02.871Z,1.30
2022-09-02T03:10:33.435Z,1.12
2022-09-02T03:13:02.264Z,1.30
2022-09-02T03:15:31.054Z,1.10
2022-09-02T03:17:58.624Z,1.20
2022-09-02T03:20:26.477Z,1.12
2022-09-02T03:22:56.561Z,1.37
2022-09-02T03:25:26.323Z,1.92
2022-09-02T03:27:55.086Z,1.83
2022-09-02T03:30:26.490Z,1.75
2022-09-02T03:33:00.456Z,1.52
2022-09-02T03:35:33.910Z,1.30
2022-09-02T03:38:01.828Z,2.28
2022-09-02T03:40:29.990Z,1.30
2022-09-02T03:43:00.098Z,1.20
2022-09-02T03:45:33.197Z,1.40
2022-09-02T03:48:03.164Z,1.12
2022-09-02T03:50:40.093Z,1.35
2022-09-02T03:53:27.517Z,1.40
2022-09-02T03:56:22.868Z,1.20
2022-09-02T03:58:52.624Z,1.05
2022-09-02T04:01:23.728Z,1.20
2022-09-02T04:03:54.415Z,1.30
2022-09-02T04:06:26.235Z,1.30
2022-09-02T04:09:01.309Z,1.40
2022-09-02T04:11:33.541Z,1.40
2022-09-02T04:14:01.422Z,1.30
2022-09-02T04:16:36.255Z,1.40
2022-09-02T04:19:06.122Z,2.03
2022-09-02T04:21:36.830Z,1.58
2022-09-02T04:24:10.621Z,1.48
2022-09-02T04:26:45.239Z,1.50
2022-09-02T04:29:14.476Z,1.47
2022-09-02T04:31:43.118Z,1.90
2022-09-02T04:34:11.092Z,1.70
2022-09-02T04:36:40.918Z,1.60
2022-09-02T04:39:09.491Z,1.70
2022-09-02T04:41:38.119Z,1.25
2022-09-02T04:44:09.885Z,1.60
2022-09-02T04:46:37.795Z,1.50
2022-09-02T04:49:06.217Z,1.67
2022-09-02T04:51:34.365Z,1.40
2022-09-02T04:54:02.480Z,1.20
2022-09-02T04:56:34.200Z,1.40
2022-09-02T04:59:10.290Z,1.75
2022-09-02T05:01:38.832Z,1.37
2022-09-02T05:04:10.347Z,1.50
2022-09-02T05:06:44.045Z,1.30
2022-09-02T05:09:15.605Z,1.60
2022-09-02T05:11:44.263Z,1.50
2022-09-02T05:14:13.407Z,1.52
2022-09-02T05:16:42.918Z,1.40
2022-09-02T05:19:14.715Z,1.58
2022-09-02T05:21:44.408Z,1.40
2022-09-02T05:24:13.448Z,1.27
2022-09-02T05:26:45.601Z,1.40
2022-09-02T05:29:14.178Z,1.30
2022-09-02T05:31:42.848Z,1.37
2022-09-02T05:34:12.130Z,1.40
2022-09-02T05:36:43.419Z,1.25
2022-09-02T05:39:11.646Z,1.23
2022-09-02T05:41:39.696Z,1.40
2022-09-02T05:44:13.483Z,1.23
2022-09-02T05:46:43.543Z,1.50
2022-09-02T05:49:18.001Z,1.30
2022-09-02T05:51:55.094Z,1.20
2022-09-02T05:54:28.804Z,1.40
2022-09-02T05:57:09.332Z,1.10
2022-09-02T05:59:42.514Z,1.30
2022-09-02T06:02:12.314Z,1.30
2022-09-02T06:04:42.715Z,1.27
2022-09-02T06:07:13.887Z,1.17
2022-09-02T06:09:45.021Z,1.30
2022-09-02T06:12:14.553Z,1.30
2022-09-02T06:14:49.076Z,1.20
2022-09-02T06:17:20.582Z,1.20
2022-09-02T06:19:48.471Z,1.30
2022-09-02T06:22:21.677Z,1.30
2022-09-02T06:24:52.550Z,1.40
2022-09-02T06:27:32.512Z,1.27
2022-09-02T06:30:01.071Z,1.25
2022-09-02T06:32:29.688Z,1.60
2022-09-02T06:34:58.804Z,1.50
2022-09-02T06:37:29.499Z,1.37
2022-09-02T06:40:06.540Z,1.40
2022-09-02T06:42:35.109Z,1.50
2022-09-02T06:45:08.951Z,1.45
2022-09-02T06:47:37.360Z,1.30
2022-09-02T06:50:05.162Z,1.40
2022-09-02T06:52:32.810Z,1.40
2022-09-02T06:55:10.674Z,1.50
2022-09-02T06:57:41.262Z,1.30
2022-09-02T07:00:16.840Z,1.50
2022-09-02T07:03:04.331Z,1.45
2022-09-02T07:05:44.371Z,1.50
2022-09-02T07:08:17.564Z,1.47
2022-09-02T07:10:45.685Z,1.50
2022-09-02T07:13:22.067Z,1.60
2022-09-02T07:15:57.672Z,1.30
2022-09-02T07:18:31.141Z,1.50
2022-09-02T07:21:01.188Z,1.30
2022-09-02T07:23:29.786Z,1.52
2022-09-02T07:26:00.966Z,1.43
2022-09-02T07:28:28.943Z,1.50
2022-09-02T07:31:01.067Z,1.53
2022-09-02T07:33:32.559Z,1.50
2022-09-02T07:36:00.213Z,1.62
2022-09-02T07:38:33.260Z,1.50
2022-09-02T07:41:18.459Z,1.70
2022-09-02T07:43:51.140Z,1.60
2022-09-02T07:46:20.350Z,1.50
2022-09-02T07:48:50.825Z,1.50
2022-09-02T07:51:35.429Z,1.60
2022-09-02T07:54:17.273Z,1.70
2022-09-02T07:56:45.631Z,2.20
2022-09-02T07:59:13.148Z,1.70
2022-09-02T08:04:28.560Z,1.60
2022-09-02T08:06:59.790Z,1.50
2022-09-02T08:09:29.184Z,1.50
2022-09-02T08:12:04.925Z,1.60
2022-09-02T08:14:32.663Z,1.48
2022-09-02T08:17:08.506Z,1.50
2022-09-02T08:19:36.344Z,1.50
2022-09-02T08:22:06.865Z,1.62
2022-09-02T08:24:34.310Z,1.70
2022-09-02T08:27:02.141Z,1.87
2022-09-02T08:29:29.771Z,1.60
2022-09-02T08:31:57.461Z,1.60
2022-09-02T08:34:30.436Z,1.60
2022-09-02T08:37:03.735Z,1.90
2022-09-02T08:39:40.179Z,1.80
2022-09-02T08:42:25.008Z,2.00
2022-09-02T08:44:58.442Z,1.80
2022-09-02T08:47:38.536Z,1.95
2022-09-02T08:50:14.057Z,1.90
2022-09-02T08:52:59.563Z,1.80
2022-09-02T08:55:47.852Z,1.90
2022-09-02T08:58:23.608Z,1.75
2022-09-02T09:01:11.772Z,1.90
2022-09-02T09:04:11.499Z,1.83
2022-09-02T09:06:55.060Z,1.83
2022-09-02T09:09:37.911Z,2.25
2022-09-02T09:12:11.958Z,2.00
2022-09-02T09:14:51.545Z,2.00
2022-09-02T09:17:44.722Z,1.92
2022-09-02T09:20:32.192Z,2.00
2022-09-02T09:23:07.097Z,2.10
2022-09-02T09:25:35.009Z,1.73
2022-09-02T09:28:07.372Z,1.87
2022-09-02T09:30:45.079Z,1.90
2022-09-02T09:33:18.202Z,2.10
2022-09-02T09:36:05.581Z,2.00
2022-09-02T09:38:41.676Z,2.00
2022-09-02T09:41:34.708Z,2.08
2022-09-02T09:44:08.106Z,2.08
2022-09-02T09:46:39.917Z,2.00
2022-09-02T09:49:18.081Z,2.10
2022-09-02T09:51:59.527Z,2.12
2022-09-02T09:54:30.270Z,2.30
2022-09-02T09:57:14.005Z,2.30
2022-09-02T09:59:57.106Z,2.00
2022-09-02T10:02:26.802Z,2.15
2022-09-02T10:05:26.944Z,2.10
2022-09-02T10:08:00.665Z,2.03
2022-09-02T10:10:30.948Z,2.20
2022-09-02T10:13:01.740Z,2.13
2022-09-02T10:15:42.664Z,2.03
2022-09-02T10:18:26.393Z,2.20
2022-09-02T10:21:33.212Z,2.17
2022-09-02T10:24:27.921Z,2.03
2022-09-02T10:27:06.868Z,2.10
2022-09-02T10:30:14.749Z,2.10
2022-09-02T10:33:04.807Z,2.03
2022-09-02T10:35:45.876Z,1.87
2022-09-02T10:38:27.051Z,2.40
2022-09-02T10:41:20.297Z,1.98
2022-09-02T10:44:18.854Z,2.00
2022-09-02T10:47:02.625Z,2.10
2022-09-02T10:49:59.231Z,2.00
2022-09-02T10:52:46.211Z,2.00
2022-09-02T10:55:39.946Z,1.95
2022-09-02T10:58:12.307Z,2.05
2022-09-02T11:00:42.378Z,2.00
2022-09-02T11:03:14.094Z,1.92
2022-09-02T11:05:48.181Z,1.80
2022-09-02T11:08:34.762Z,2.10
2022-09-02T11:11:15.079Z,2.00
2022-09-02T11:13:58.636Z,1.90
2022-09-02T11:16:31.107Z,1.92
2022-09-02T11:19:19.894Z,2.00
2022-09-02T11:22:00.047Z,1.85
2022-09-02T11:24:40.358Z,1.80
2022-09-02T11:27:41.522Z,2.30
2022-09-02T11:30:26.148Z,2.00
2022-09-02T11:33:24.091Z,1.90
2022-09-02T11:35:51.919Z,2.28
2022-09-02T11:38:45.260Z,1.90
2022-09-02T11:41:58.468Z,1.80
2022-09-02T11:44:54.420Z,2.05
2022-09-02T11:47:49.563Z,2.00
2022-09-02T11:50:41.740Z,1.90
2022-09-02T11:53:27.573Z,2.00
2022-09-02T11:56:07.432Z,2.30
2022-09-02T11:58:39.244Z,1.90
2022-09-02T12:01:16.221Z,1.92
2022-09-02T12:07:10.385Z,2.12
2022-09-02T12:09:48.590Z,2.10
2022-09-02T12:12:39.256Z,2.03
2022-09-02T12:15:07.669Z,2.10
2022-09-02T12:17:42.162Z,2.12
2022-09-02T12:20:33.669Z,2.30
2022-09-02T12:23:02.688Z,2.20
2022-09-02T12:25:35.805Z,1.90
2022-09-02T12:28:23.881Z,2.00
2022-09-02T12:31:15.469Z,1.98
2022-09-02T12:33:47.840Z,2.27
2022-09-02T12:36:40.003Z,1.90
2022-09-02T12:39:23.152Z,2.03
2022-09-02T12:41:57.930Z,1.92
2022-09-02T12:44:54.333Z,2.10
2022-09-02T12:47:46.797Z,1.90
2022-09-02T12:50:34.653Z,2.10
2022-09-02T12:53:25.664Z,2.10
2022-09-02T12:56:04.372Z,2.10
2022-09-02T12:58:43.450Z,2.00
2022-09-02T13:01:30.741Z,2.10
2022-09-02T13:04:03.394Z,2.20
2022-09-02T13:06:46.861Z,2.08
2022-09-02T13:09:45.527Z,2.35
2022-09-02T13:12:51.302Z,2.20
2022-09-02T13:15:28.139Z,2.15
2022-09-02T13:18:22.611Z,2.25
2022-09-02T13:21:27.723Z,2.00
2022-09-02T13:24:41.689Z,2.12
2022-09-02T13:27:14.381Z,2.35
2022-09-02T13:30:10.013Z,2.20
2022-09-02T13:32:39.212Z,2.05
2022-09-02T13:35:21.450Z,2.25
2022-09-02T13:38:00.742Z,2.05
2022-09-02T13:40:35.281Z,1.98
2022-09-02T13:43:12.743Z,2.25
2022-09-02T13:45:40.646Z,2.40
2022-09-02T13:48:22.333Z,2.28
2022-09-02T13:50:52.100Z,2.20
2022-09-02T13:53:49.237Z,2.37
2022-09-02T13:56:27.374Z,2.40
2022-09-02T13:58:58.959Z,2.20
2022-09-02T14:01:41.865Z,2.10
2022-09-02T14:04:12.175Z,2.15
2022-09-02T14:06:43.116Z,2.30
2022-09-02T14:09:23.184Z,2.30
2022-09-02T14:11:51.214Z,2.20
2022-09-02T14:14:22.437Z,2.30
2022-09-02T14:17:29.093Z,2.20
2022-09-02T14:20:16.726Z,2.22
2022-09-02T14:22:55.012Z,2.20
2022-09-02T14:25:27.418Z,2.15
2022-09-02T14:28:03.141Z,2.37
2022-09-02T14:30:42.060Z,2.55
2022-09-02T14:33:42.024Z,1.98
2022-09-02T14:36:18.743Z,2.33
2022-09-02T14:38:47.749Z,2.30
2022-09-02T14:41:24.462Z,2.40
2022-09-02T14:44:10.692Z,2.60
2022-09-02T14:46:45.685Z,2.30
2022-09-02T14:49:37.390Z,2.30
2022-09-02T14:52:19.584Z,2.42
2022-09-02T14:54:50.299Z,2.40
2022-09-02T14:57:35.972Z,2.33
2022-09-02T15:00:17.298Z,2.50
2022-09-02T15:02:57.480Z,2.55
2022-09-02T15:05:29.512Z,2.40
2022-09-02T15:08:02.949Z,2.20
2022-09-02T15:10:36.374Z,2.30
2022-09-02T15:13:05.518Z,2.25
2022-09-02T15:15:34.498Z,2.50
2022-09-02T15:18:03.321Z,2.30
2022-09-02T15:20:34.030Z,2.55
2022-09-02T15:23:11.562Z,2.30
2022-09-02T15:25:40.477Z,2.50
2022-09-02T15:28:09.767Z,2.20
2022-09-02T15:30:42.156Z,2.42
2022-09-02T15:33:20.745Z,2.20
2022-09-02T15:35:55.652Z,2.35
2022-09-02T15:38:24.364Z,2.42
2022-09-02T15:40:54.313Z,2.75
2022-09-02T15:43:23.454Z,2.75
2022-09-02T15:45:57.988Z,2.50
2022-09-02T15:48:28.933Z,2.60
2022-09-02T15:53:38.084Z,2.87
2022-09-02T15:56:28.841Z,2.70
2022-09-02T15:59:02.420Z,3.10
2022-09-02T16:01:37.292Z,2.90
2022-09-02T16:04:14.537Z,2.87
2022-09-02T16:06:48.290Z,2.90
2022-09-02T16:09:23.158Z,2.97
2022-09-02T16:11:56.168Z,5.05
2022-09-02T16:14:25.811Z,3.10
2022-09-02T16:16:55.984Z,2.90
2022-09-02T16:19:29.800Z,3.12
2022-09-02T16:22:03.818Z,3.90
2022-09-02T16:24:33.517Z,5.20
2022-09-02T16:27:42.568Z,22.90
2022-09-02T16:30:11.026Z,2.97
2022-09-02T16:32:38.660Z,3.10
2022-09-02T16:35:06.822Z,3.00
2022-09-02T16:37:35.053Z,2.97
2022-09-02T16:40:12.152Z,2.87
2022-09-02T16:42:44.410Z,3.00
2022-09-02T16:45:15.463Z,2.80
2022-09-02T16:47:44.621Z,3.10
2022-09-02T16:50:13.318Z,3.10
2022-09-02T16:52:47.912Z,2.95
2022-09-02T16:55:22.255Z,3.10
2022-09-02T16:57:51.295Z,3.10
2022-09-02T17:00:19.340Z,2.80
2022-09-02T17:02:53.691Z,3.10
2022-09-02T17:05:21.844Z,3.00
2022-09-02T17:07:52.222Z,3.17
2022-09-02T17:10:22.386Z,3.50
2022-09-02T17:13:02.815Z,2.90
2022-09-02T17:15:34.794Z,3.15
2022-09-02T17:18:03.341Z,2.95
2022-09-02T17:20:32.318Z,3.05
2022-09-02T17:23:00.450Z,3.00
2022-09-02T17:25:31.557Z,2.90
2022-09-02T17:28:03.700Z,3.25
2022-09-02T17:30:32.529Z,3.12
2022-09-02T17:33:06.042Z,3.00
2022-09-02T17:35:34.875Z,3.22
2022-09-02T17:38:02.415Z,3.30
2022-09-02T17:40:48.810Z,3.20
2022-09-02T17:43:16.802Z,3.10
2022-09-02T17:45:47.646Z,3.10
2022-09-02T17:48:39.053Z,3.35
2022-09-02T17:51:19.749Z,3.30
2022-09-02T17:53:47.516Z,3.20
2022-09-02T17:56:42.704Z,3.27
2022-09-02T17:59:34.959Z,3.70
2022-09-02T18:02:15.018Z,4.25
2022-09-02T18:05:01.881Z,4.65
2022-09-02T18:07:51.046Z,4.33
2022-09-02T18:10:19.101Z,3.90
2022-09-02T18:12:47.306Z,3.47
2022-09-02T18:15:18.558Z,3.72
2022-09-02T18:17:57.748Z,3.50
2022-09-02T18:20:42.069Z,3.60
2022-09-02T18:23:39.658Z,3.83
2022-09-02T18:26:46.105Z,3.67
2022-09-02T18:29:27.481Z,3.90
2022-09-02T18:32:14.423Z,3.60
2022-09-02T18:34:51.798Z,3.78
2022-09-02T18:37:45.938Z,3.47
2022-09-02T18:41:03.862Z,3.90
2022-09-02T18:43:53.521Z,3.92
2022-09-02T18:46:29.908Z,3.60
2022-09-02T18:49:04.585Z,3.53
2022-09-02T18:51:41.139Z,3.50
2022-09-02T18:54:19.641Z,3.30
2022-09-02T18:56:57.606Z,3.40
2022-09-02T18:59:47.570Z,3.50
2022-09-02T19:02:31.336Z,3.47
2022-09-02T19:05:10.292Z,3.80
2022-09-02T19:08:07.687Z,3.60
2022-09-02T19:10:36.113Z,3.50
2022-09-02T19:13:05.966Z,3.40
2022-09-02T19:15:37.439Z,3.80
2022-09-02T19:18:09.458Z,3.47
2022-09-02T19:20:38.575Z,4.00
2022-09-02T19:23:12.132Z,3.70
2022-09-02T19:25:47.020Z,3.62
2022-09-02T19:28:17.438Z,3.75
2022-09-02T19:30:46.062Z,4.00
2022-09-02T19:33:14.610Z,3.92
2022-09-02T19:35:46.972Z,3.62
2022-09-02T19:38:17.765Z,3.90
2022-09-02T19:40:49.763Z,3.95
2022-09-02T19:43:17.647Z,3.70
2022-09-02T19:45:49.208Z,3.90
2022-09-02T19:48:18.470Z,3.90
2022-09-02T19:50:47.990Z,3.97
2022-09-02T19:53:22.740Z,4.22
2022-09-02T19:55:51.646Z,4.00
2022-09-02T19:58:20.329Z,4.00
2022-09-02T20:00:48.563Z,4.03
2022-09-02T20:03:16.752Z,4.43
2022-09-02T20:05:44.451Z,4.20
2022-09-02T20:08:12.156Z,4.30
2022-09-02T20:10:40.290Z,4.20
2022-09-02T20:13:13.851Z,4.47
2022-09-02T20:15:42.199Z,4.13
2022-09-02T20:18:15.157Z,4.10
2022-09-02T20:20:51.821Z,4.00
2022-09-02T20:23:28.666Z,4.28
2022-09-02T20:26:25.800Z,4.28
2022-09-02T20:29:26.546Z,4.47
2022-09-02T20:32:18.915Z,4.50
2022-09-02T20:34:49.456Z,4.67
2022-09-02T20:37:51.981Z,4.50
2022-09-02T20:40:46.462Z,4.60
2022-09-02T20:43:27.345Z,4.28
2022-09-02T20:46:20.446Z,4.00
2022-09-02T20:49:09.012Z,4.40
2022-09-02T20:52:04.355Z,4.37
2022-09-02T20:55:11.415Z,3.90
2022-09-02T20:58:16.382Z,4.62
2022-09-02T21:00:55.925Z,5.35
2022-09-02T21:03:26.134Z,4.75
2022-09-02T21:05:58.370Z,4.60
2022-09-02T21:08:35.654Z,4.70
2022-09-02T21:11:11.413Z,4.80
2022-09-02T21:13:49.829Z,4.43
2022-09-02T21:16:34.503Z,4.70
2022-09-02T21:19:21.512Z,4.50
2022-09-02T21:21:53.488Z,4.80
2022-09-02T21:24:39.788Z,4.12
2022-09-02T21:27:21.417Z,4.62
2022-09-02T21:30:09.320Z,4.70
2022-09-02T21:32:44.712Z,4.60
2022-09-02T21:35:27.723Z,4.57
2022-09-02T21:38:10.698Z,4.40
2022-09-02T21:41:29.645Z,4.30
2022-09-02T21:44:28.782Z,4.30
2022-09-02T21:47:10.866Z,4.40
2022-09-02T21:50:22.137Z,4.93
2022-09-02T21:52:55.172Z,5.18
2022-09-02T21:55:39.189Z,5.85
2022-09-02T21:58:51.828Z,6.50
2022-09-02T22:01:46.552Z,6.03
2022-09-02T22:04:33.451Z,5.47
2022-09-02T22:07:25.320Z,5.20
2022-09-02T22:10:09.119Z,5.22
2022-09-02T22:12:40.347Z,5.10
2022-09-02T22:15:19.247Z,4.80
2022-09-02T22:18:00.194Z,4.50
2022-09-02T22:20:40.721Z,4.53
2022-09-02T22:23:15.943Z,5.18
2022-09-02T22:25:48.936Z,4.70
2022-09-02T22:28:26.830Z,4.62
2022-09-02T22:31:00.204Z,4.60
2022-09-02T22:33:34.115Z,4.68
2022-09-02T22:36:12.047Z,4.47
2022-09-02T22:38:49.381Z,4.97
2022-09-02T22:41:42.100Z,4.57
2022-09-02T22:44:17.432Z,4.90
2022-09-02T22:47:12.630Z,4.53
2022-09-02T22:50:04.446Z,4.53
2022-09-02T22:52:46.140Z,4.55
2022-09-02T22:55:38.243Z,4.50
2022-09-02T22:58:11.527Z,4.65
2022-09-02T23:01:05.767Z,4.40
2022-09-02T23:03:43.356Z,4.37
2022-09-02T23:06:17.446Z,4.60
2022-09-02T23:08:46.186Z,4.57
2022-09-02T23:11:41.491Z,4.90
2022-09-02T23:14:31.564Z,4.60
2022-09-02T23:17:34.711Z,4.60
2022-09-02T23:20:20.864Z,4.90
2022-09-02T23:23:14.156Z,4.60
2022-09-02T23:25:52.397Z,4.80
2022-09-02T23:28:31.255Z,4.55
2022-09-02T23:31:11.402Z,4.60
2022-09-02T23:34:30.642Z,4.75
2022-09-02T23:37:05.016Z,4.50
2022-09-02T23:40:11.622Z,4.53
2022-09-02T23:42:39.586Z,4.62
2022-09-02T23:45:28.467Z,4.70
2022-09-02T23:48:29.661Z,4.85
2022-09-02T23:51:17.553Z,4.73
2022-09-02T23:54:20.715Z,4.50
2022-09-02T23:57:26.970Z,5.03
